sensor_id;sensor_type;location;lat;lon;timestamp;temperature;humidity
680;DHT22;322;48.846;9.230;2023-05-07T00:00:24;12.80;99.90
680;DHT22;322;48.846;9.230;2023-05-07T00:02:51;12.80;99.90
680;DHT22;322;48.846;9.230;2023-05-07T00:05:18;13.00;99.90
680;DHT22;322;48.846;9.230;2023-05-07T00:07:47;13.00;99.90
680;DHT22;322;48.846;9.230;2023-05-07T00:10:15;13.00;99.90
680;DHT22;322;48.846;9.230;2023-05-07T00:12:42;12.90;99.90
680;DHT22;322;48.846;9.230;2023-05-07T00:15:09;12.90;99.90
680;DHT22;322;48.846;9.230;2023-05-07T00:17:36;12.90;99.90
680;DHT22;322;48.846;9.230;2023-05-07T00:20:04;12.90;99.90
680;DHT22;322;48.846;9.230;2023-05-07T00:22:31;12.80;99.90
680;DHT22;322;48.846;9.230;2023-05-07T00:24:58;12.70;99.90
680;DHT22;322;48.846;9.230;2023-05-07T00:27:27;12.70;99.90
680;DHT22;322;48.846;9.230;2023-05-07T00:29:53;12.70;99.90
680;DHT22;322;48.846;9.230;2023-05-07T00:32:20;12.60;99.90
680;DHT22;322;48.846;9.230;2023-05-07T00:34:47;12.80;99.90
680;DHT22;322;48.846;9.230;2023-05-07T00:37:14;12.80;99.90
680;DHT22;322;48.846;9.230;2023-05-07T00:39:41;12.70;99.90
680;DHT22;322;48.846;9.230;2023-05-07T00:42:08;12.60;99.90
680;DHT22;322;48.846;9.230;2023-05-07T00:44:36;12.60;99.90
680;DHT22;322;48.846;9.230;2023-05-07T00:47:09;12.50;99.90
680;DHT22;322;48.846;9.230;2023-05-07T00:49:38;12.50;99.90
680;DHT22;322;48.846;9.230;2023-05-07T00:52:06;12.50;99.90
680;DHT22;322;48.846;9.230;2023-05-07T00:54:34;12.40;99.90
680;DHT22;322;48.846;9.230;2023-05-07T00:57:02;12.30;99.90
680;DHT22;322;48.846;9.230;2023-05-07T00:59:29;12.30;99.90
680;DHT22;322;48.846;9.230;2023-05-07T01:01:58;12.20;99.90
680;DHT22;322;48.846;9.230;2023-05-07T01:04:26;12.30;99.90
680;DHT22;322;48.846;9.230;2023-05-07T01:06:53;12.20;99.90
680;DHT22;322;48.846;9.230;2023-05-07T01:09:22;12.00;99.90
680;DHT22;322;48.846;9.230;2023-05-07T01:11:50;12.10;99.90
680;DHT22;322;48.846;9.230;2023-05-07T01:14:17;12.00;99.90
680;DHT22;322;48.846;9.230;2023-05-07T01:16:46;12.10;99.90
680;DHT22;322;48.846;9.230;2023-05-07T01:19:15;12.00;99.90
680;DHT22;322;48.846;9.230;2023-05-07T01:21:46;11.90;99.90
680;DHT22;322;48.846;9.230;2023-05-07T01:24:15;11.80;99.90
680;DHT22;322;48.846;9.230;2023-05-07T01:26:43;11.80;99.90
680;DHT22;322;48.846;9.230;2023-05-07T01:29:10;11.90;99.90
680;DHT22;322;48.846;9.230;2023-05-07T01:31:37;11.90;99.90
680;DHT22;322;48.846;9.230;2023-05-07T01:34:05;11.80;99.90
680;DHT22;322;48.846;9.230;2023-05-07T01:36:34;11.70;99.90
680;DHT22;322;48.846;9.230;2023-05-07T01:39:02;11.70;99.90
680;DHT22;322;48.846;9.230;2023-05-07T01:41:30;11.70;99.90
680;DHT22;322;48.846;9.230;2023-05-07T01:43:58;11.70;99.90
680;DHT22;322;48.846;9.230;2023-05-07T01:46:26;11.60;99.90
680;DHT22;322;48.846;9.230;2023-05-07T01:48:53;11.60;99.90
680;DHT22;322;48.846;9.230;2023-05-07T01:51:21;11.70;99.90
680;DHT22;322;48.846;9.230;2023-05-07T01:53:48;11.80;99.90
680;DHT22;322;48.846;9.230;2023-05-07T01:56:16;11.80;99.90
680;DHT22;322;48.846;9.230;2023-05-07T01:58:45;11.80;99.90
680;DHT22;322;48.846;9.230;2023-05-07T02:01:12;11.80;99.90
680;DHT22;322;48.846;9.230;2023-05-07T02:03:39;11.80;99.90
680;DHT22;322;48.846;9.230;2023-05-07T02:06:06;11.70;99.90
680;DHT22;322;48.846;9.230;2023-05-07T02:08:33;11.80;99.90
680;DHT22;322;48.846;9.230;2023-05-07T02:11:00;11.70;99.90
680;DHT22;322;48.846;9.230;2023-05-07T02:13:29;11.70;99.90
680;DHT22;322;48.846;9.230;2023-05-07T02:15:57;11.70;99.90
680;DHT22;322;48.846;9.230;2023-05-07T02:18:24;11.80;99.90
680;DHT22;322;48.846;9.230;2023-05-07T02:20:51;11.70;99.90
680;DHT22;322;48.846;9.230;2023-05-07T02:23:18;11.70;99.90
680;DHT22;322;48.846;9.230;2023-05-07T02:25:44;11.80;99.90
680;DHT22;322;48.846;9.230;2023-05-07T02:28:12;11.90;99.90
680;DHT22;322;48.846;9.230;2023-05-07T02:30:38;11.90;99.90
680;DHT22;322;48.846;9.230;2023-05-07T02:33:07;11.90;99.90
680;DHT22;322;48.846;9.230;2023-05-07T02:35:34;11.90;99.90
680;DHT22;322;48.846;9.230;2023-05-07T02:38:01;11.80;99.90
680;DHT22;322;48.846;9.230;2023-05-07T02:40:28;11.80;99.90
680;DHT22;322;48.846;9.230;2023-05-07T02:42:55;11.80;99.90
680;DHT22;322;48.846;9.230;2023-05-07T02:45:22;11.80;99.90
680;DHT22;322;48.846;9.230;2023-05-07T02:47:48;11.80;99.90
680;DHT22;322;48.846;9.230;2023-05-07T02:50:17;11.80;99.90
680;DHT22;322;48.846;9.230;2023-05-07T02:52:43;11.70;99.90
680;DHT22;322;48.846;9.230;2023-05-07T02:55:10;11.60;99.90
680;DHT22;322;48.846;9.230;2023-05-07T02:57:37;11.50;99.90
680;DHT22;322;48.846;9.230;2023-05-07T03:00:12;11.40;99.90
680;DHT22;322;48.846;9.230;2023-05-07T03:02:39;11.30;99.90
680;DHT22;322;48.846;9.230;2023-05-07T03:05:06;11.30;99.90
680;DHT22;322;48.846;9.230;2023-05-07T03:07:34;11.20;99.90
680;DHT22;322;48.846;9.230;2023-05-07T03:10:01;11.20;99.90
680;DHT22;322;48.846;9.230;2023-05-07T03:12:29;11.20;99.90
680;DHT22;322;48.846;9.230;2023-05-07T03:14:56;11.30;99.90
680;DHT22;322;48.846;9.230;2023-05-07T03:17:23;11.30;99.90
680;DHT22;322;48.846;9.230;2023-05-07T03:19:50;11.20;99.90
680;DHT22;322;48.846;9.230;2023-05-07T03:22:17;11.00;99.90
680;DHT22;322;48.846;9.230;2023-05-07T03:24:45;10.90;99.90
680;DHT22;322;48.846;9.230;2023-05-07T03:27:12;10.80;99.90
680;DHT22;322;48.846;9.230;2023-05-07T03:29:39;10.90;99.90
680;DHT22;322;48.846;9.230;2023-05-07T03:32:05;10.90;99.90
680;DHT22;322;48.846;9.230;2023-05-07T03:34:32;10.90;99.90
680;DHT22;322;48.846;9.230;2023-05-07T03:37:00;10.80;99.90
680;DHT22;322;48.846;9.230;2023-05-07T03:39:27;10.90;99.90
680;DHT22;322;48.846;9.230;2023-05-07T03:41:55;10.90;99.90
680;DHT22;322;48.846;9.230;2023-05-07T03:44:22;10.70;99.90
680;DHT22;322;48.846;9.230;2023-05-07T03:46:49;10.70;99.90
680;DHT22;322;48.846;9.230;2023-05-07T03:49:15;10.80;99.90
680;DHT22;322;48.846;9.230;2023-05-07T03:51:42;10.80;99.90
680;DHT22;322;48.846;9.230;2023-05-07T03:54:09;10.80;99.90
680;DHT22;322;48.846;9.230;2023-05-07T03:56:36;10.80;99.90
680;DHT22;322;48.846;9.230;2023-05-07T03:59:04;10.70;99.90
680;DHT22;322;48.846;9.230;2023-05-07T04:01:31;10.70;99.90
680;DHT22;322;48.846;9.230;2023-05-07T04:03:58;10.70;99.90
680;DHT22;322;48.846;9.230;2023-05-07T04:06:24;10.70;99.90
680;DHT22;322;48.846;9.230;2023-05-07T04:08:51;10.60;99.90
680;DHT22;322;48.846;9.230;2023-05-07T04:11:18;10.60;99.90
680;DHT22;322;48.846;9.230;2023-05-07T04:13:45;10.60;99.90
680;DHT22;322;48.846;9.230;2023-05-07T04:16:14;10.70;99.90
680;DHT22;322;48.846;9.230;2023-05-07T04:18:41;10.80;99.90
680;DHT22;322;48.846;9.230;2023-05-07T04:21:14;10.80;99.90
680;DHT22;322;48.846;9.230;2023-05-07T04:23:41;10.80;99.90
680;DHT22;322;48.846;9.230;2023-05-07T04:26:08;10.80;99.90
680;DHT22;322;48.846;9.230;2023-05-07T04:28:35;10.90;99.90
680;DHT22;322;48.846;9.230;2023-05-07T04:31:02;10.90;99.90
680;DHT22;322;48.846;9.230;2023-05-07T04:33:30;10.90;99.90
680;DHT22;322;48.846;9.230;2023-05-07T04:35:57;11.00;99.90
680;DHT22;322;48.846;9.230;2023-05-07T04:38:28;11.20;99.90
680;DHT22;322;48.846;9.230;2023-05-07T04:40:55;11.40;99.90
680;DHT22;322;48.846;9.230;2023-05-07T04:43:22;11.50;99.90
680;DHT22;322;48.846;9.230;2023-05-07T04:45:50;11.60;99.90
680;DHT22;322;48.846;9.230;2023-05-07T04:48:17;11.70;99.90
680;DHT22;322;48.846;9.230;2023-05-07T04:50:47;11.90;99.90
680;DHT22;322;48.846;9.230;2023-05-07T04:53:14;12.00;99.90
680;DHT22;322;48.846;9.230;2023-05-07T04:55:41;12.00;99.90
680;DHT22;322;48.846;9.230;2023-05-07T04:58:08;12.10;99.90
680;DHT22;322;48.846;9.230;2023-05-07T05:00:35;12.00;99.90
680;DHT22;322;48.846;9.230;2023-05-07T05:03:02;12.00;99.90
680;DHT22;322;48.846;9.230;2023-05-07T05:05:28;11.90;99.90
680;DHT22;322;48.846;9.230;2023-05-07T05:07:57;12.00;99.90
680;DHT22;322;48.846;9.230;2023-05-07T05:10:24;11.90;99.90
680;DHT22;322;48.846;9.230;2023-05-07T05:12:50;12.00;99.90
680;DHT22;322;48.846;9.230;2023-05-07T05:15:17;12.00;99.90
680;DHT22;322;48.846;9.230;2023-05-07T05:17:44;12.10;99.90
680;DHT22;322;48.846;9.230;2023-05-07T05:20:11;12.00;99.90
680;DHT22;322;48.846;9.230;2023-05-07T05:22:38;12.10;99.90
680;DHT22;322;48.846;9.230;2023-05-07T05:25:07;12.20;99.90
680;DHT22;322;48.846;9.230;2023-05-07T05:27:34;12.30;99.90
680;DHT22;322;48.846;9.230;2023-05-07T05:30:01;12.30;99.90
680;DHT22;322;48.846;9.230;2023-05-07T05:32:28;12.30;99.90
680;DHT22;322;48.846;9.230;2023-05-07T05:34:55;12.20;99.90
680;DHT22;322;48.846;9.230;2023-05-07T05:37:22;12.20;99.90
680;DHT22;322;48.846;9.230;2023-05-07T05:39:48;12.30;99.90
680;DHT22;322;48.846;9.230;2023-05-07T05:42:17;12.40;99.90
680;DHT22;322;48.846;9.230;2023-05-07T05:44:43;12.80;99.90
680;DHT22;322;48.846;9.230;2023-05-07T05:47:10;13.30;99.90
680;DHT22;322;48.846;9.230;2023-05-07T05:49:37;13.70;99.90
680;DHT22;322;48.846;9.230;2023-05-07T05:52:04;14.00;99.30
680;DHT22;322;48.846;9.230;2023-05-07T05:54:31;14.20;98.80
680;DHT22;322;48.846;9.230;2023-05-07T05:56:58;14.30;98.30
680;DHT22;322;48.846;9.230;2023-05-07T05:59:26;14.30;97.40
680;DHT22;322;48.846;9.230;2023-05-07T06:01:53;14.20;96.60
680;DHT22;322;48.846;9.230;2023-05-07T06:04:19;14.20;96.40
680;DHT22;322;48.846;9.230;2023-05-07T06:06:46;14.20;96.80
680;DHT22;322;48.846;9.230;2023-05-07T06:09:13;14.40;96.60
680;DHT22;322;48.846;9.230;2023-05-07T06:11:40;14.50;95.70
680;DHT22;322;48.846;9.230;2023-05-07T06:14:07;14.60;95.30
680;DHT22;322;48.846;9.230;2023-05-07T06:16:35;14.70;94.80
680;DHT22;322;48.846;9.230;2023-05-07T06:19:03;14.80;95.40
680;DHT22;322;48.846;9.230;2023-05-07T06:21:30;14.80;95.20
680;DHT22;322;48.846;9.230;2023-05-07T06:23:57;14.90;95.90
680;DHT22;322;48.846;9.230;2023-05-07T06:26:24;15.10;95.40
680;DHT22;322;48.846;9.230;2023-05-07T06:28:50;15.10;94.20
680;DHT22;322;48.846;9.230;2023-05-07T06:31:18;15.00;94.10
680;DHT22;322;48.846;9.230;2023-05-07T06:33:48;15.00;94.50
680;DHT22;322;48.846;9.230;2023-05-07T06:36:15;15.00;94.80
680;DHT22;322;48.846;9.230;2023-05-07T06:38:42;15.10;94.50
680;DHT22;322;48.846;9.230;2023-05-07T06:41:09;15.10;94.80
680;DHT22;322;48.846;9.230;2023-05-07T06:43:36;15.00;94.70
680;DHT22;322;48.846;9.230;2023-05-07T06:46:02;15.00;94.30
680;DHT22;322;48.846;9.230;2023-05-07T06:48:29;15.00;95.30
680;DHT22;322;48.846;9.230;2023-05-07T06:50:57;15.00;95.40
680;DHT22;322;48.846;9.230;2023-05-07T06:53:25;15.10;95.10
680;DHT22;322;48.846;9.230;2023-05-07T06:55:52;15.30;94.40
680;DHT22;322;48.846;9.230;2023-05-07T06:58:19;15.50;93.40
680;DHT22;322;48.846;9.230;2023-05-07T07:00:46;15.60;93.40
680;DHT22;322;48.846;9.230;2023-05-07T07:03:13;15.70;92.80
680;DHT22;322;48.846;9.230;2023-05-07T07:05:40;15.80;92.80
680;DHT22;322;48.846;9.230;2023-05-07T07:08:09;16.00;92.90
680;DHT22;322;48.846;9.230;2023-05-07T07:10:36;16.20;91.50
680;DHT22;322;48.846;9.230;2023-05-07T07:13:03;16.30;91.00
680;DHT22;322;48.846;9.230;2023-05-07T07:15:30;16.50;91.10
680;DHT22;322;48.846;9.230;2023-05-07T07:17:57;16.80;90.00
680;DHT22;322;48.846;9.230;2023-05-07T07:20:25;17.00;88.40
680;DHT22;322;48.846;9.230;2023-05-07T07:22:52;17.20;85.80
680;DHT22;322;48.846;9.230;2023-05-07T07:25:20;17.40;85.50
680;DHT22;322;48.846;9.230;2023-05-07T07:27:47;17.70;85.50
680;DHT22;322;48.846;9.230;2023-05-07T07:30:14;17.90;82.20
680;DHT22;322;48.846;9.230;2023-05-07T07:32:41;18.10;80.50
680;DHT22;322;48.846;9.230;2023-05-07T07:35:08;18.10;80.80
680;DHT22;322;48.846;9.230;2023-05-07T07:37:35;18.40;79.10
680;DHT22;322;48.846;9.230;2023-05-07T07:40:02;18.70;76.80
680;DHT22;322;48.846;9.230;2023-05-07T07:42:31;19.10;76.70
680;DHT22;322;48.846;9.230;2023-05-07T07:44:57;19.20;76.50
680;DHT22;322;48.846;9.230;2023-05-07T07:47:24;19.50;75.50
680;DHT22;322;48.846;9.230;2023-05-07T07:49:51;20.00;77.40
680;DHT22;322;48.846;9.230;2023-05-07T07:52:18;20.50;72.40
680;DHT22;322;48.846;9.230;2023-05-07T07:54:45;21.10;70.10
680;DHT22;322;48.846;9.230;2023-05-07T07:57:12;21.40;67.50
680;DHT22;322;48.846;9.230;2023-05-07T07:59:40;21.70;66.00
680;DHT22;322;48.846;9.230;2023-05-07T08:02:08;21.30;63.50
680;DHT22;322;48.846;9.230;2023-05-07T08:04:35;21.00;68.50
680;DHT22;322;48.846;9.230;2023-05-07T08:07:02;21.20;64.30
680;DHT22;322;48.846;9.230;2023-05-07T08:09:29;21.40;62.60
680;DHT22;322;48.846;9.230;2023-05-07T08:11:56;21.70;66.70
680;DHT22;322;48.846;9.230;2023-05-07T08:14:23;21.90;64.80
680;DHT22;322;48.846;9.230;2023-05-07T08:16:51;22.00;64.50
680;DHT22;322;48.846;9.230;2023-05-07T08:19:18;22.10;59.30
680;DHT22;322;48.846;9.230;2023-05-07T08:21:45;22.20;59.80
680;DHT22;322;48.846;9.230;2023-05-07T08:24:13;22.30;62.80
680;DHT22;322;48.846;9.230;2023-05-07T08:26:40;22.60;59.60
680;DHT22;322;48.846;9.230;2023-05-07T08:29:07;22.60;57.40
680;DHT22;322;48.846;9.230;2023-05-07T08:31:34;22.60;59.50
680;DHT22;322;48.846;9.230;2023-05-07T08:34:03;22.80;58.50
680;DHT22;322;48.846;9.230;2023-05-07T08:36:30;22.80;58.60
680;DHT22;322;48.846;9.230;2023-05-07T08:38:57;23.00;61.00
680;DHT22;322;48.846;9.230;2023-05-07T08:41:24;23.00;61.20
680;DHT22;322;48.846;9.230;2023-05-07T08:43:51;22.90;61.20
680;DHT22;322;48.846;9.230;2023-05-07T08:46:19;22.90;58.10
680;DHT22;322;48.846;9.230;2023-05-07T08:48:48;22.90;59.10
680;DHT22;322;48.846;9.230;2023-05-07T08:51:18;22.90;60.00
680;DHT22;322;48.846;9.230;2023-05-07T08:53:46;23.00;58.70
680;DHT22;322;48.846;9.230;2023-05-07T08:56:14;23.00;57.30
680;DHT22;322;48.846;9.230;2023-05-07T08:58:43;23.00;60.20
680;DHT22;322;48.846;9.230;2023-05-07T09:01:14;23.00;62.00
680;DHT22;322;48.846;9.230;2023-05-07T09:03:44;23.20;58.90
680;DHT22;322;48.846;9.230;2023-05-07T09:06:11;23.30;59.90
680;DHT22;322;48.846;9.230;2023-05-07T09:08:40;23.40;59.50
680;DHT22;322;48.846;9.230;2023-05-07T09:11:07;23.50;56.70
680;DHT22;322;48.846;9.230;2023-05-07T09:13:34;23.60;60.80
680;DHT22;322;48.846;9.230;2023-05-07T09:16:10;23.80;58.50
680;DHT22;322;48.846;9.230;2023-05-07T09:18:41;23.60;57.90
680;DHT22;322;48.846;9.230;2023-05-07T09:21:10;23.90;59.60
680;DHT22;322;48.846;9.230;2023-05-07T09:23:37;24.20;58.10
680;DHT22;322;48.846;9.230;2023-05-07T09:26:06;24.30;55.20
680;DHT22;322;48.846;9.230;2023-05-07T09:28:38;24.50;58.20
680;DHT22;322;48.846;9.230;2023-05-07T09:31:06;24.70;57.20
680;DHT22;322;48.846;9.230;2023-05-07T09:33:33;24.80;55.20
680;DHT22;322;48.846;9.230;2023-05-07T09:36:02;24.40;55.10
680;DHT22;322;48.846;9.230;2023-05-07T09:38:30;24.40;58.70
680;DHT22;322;48.846;9.230;2023-05-07T09:41:02;24.70;57.80
680;DHT22;322;48.846;9.230;2023-05-07T09:43:33;24.80;54.00
680;DHT22;322;48.846;9.230;2023-05-07T09:46:02;25.10;53.80
680;DHT22;322;48.846;9.230;2023-05-07T09:48:30;25.10;54.40
680;DHT22;322;48.846;9.230;2023-05-07T09:50:57;25.70;53.80
680;DHT22;322;48.846;9.230;2023-05-07T09:53:29;26.00;54.10
680;DHT22;322;48.846;9.230;2023-05-07T09:55:57;26.10;51.60
680;DHT22;322;48.846;9.230;2023-05-07T09:58:25;25.60;54.30
680;DHT22;322;48.846;9.230;2023-05-07T10:00:54;25.30;53.80
680;DHT22;322;48.846;9.230;2023-05-07T10:03:23;25.10;54.60
680;DHT22;322;48.846;9.230;2023-05-07T10:05:51;25.40;55.40
680;DHT22;322;48.846;9.230;2023-05-07T10:08:20;25.80;52.50
680;DHT22;322;48.846;9.230;2023-05-07T10:10:47;25.90;51.90
680;DHT22;322;48.846;9.230;2023-05-07T10:13:14;26.10;50.70
680;DHT22;322;48.846;9.230;2023-05-07T10:15:41;25.70;53.10
680;DHT22;322;48.846;9.230;2023-05-07T10:18:10;25.60;53.80
680;DHT22;322;48.846;9.230;2023-05-07T10:20:39;25.90;50.40
680;DHT22;322;48.846;9.230;2023-05-07T10:23:07;26.30;50.70
680;DHT22;322;48.846;9.230;2023-05-07T10:25:35;26.30;51.40
680;DHT22;322;48.846;9.230;2023-05-07T10:28:06;26.50;52.70
680;DHT22;322;48.846;9.230;2023-05-07T10:30:41;26.60;53.60
680;DHT22;322;48.846;9.230;2023-05-07T10:33:16;26.40;50.50
680;DHT22;322;48.846;9.230;2023-05-07T10:35:45;26.20;52.10
680;DHT22;322;48.846;9.230;2023-05-07T10:38:13;26.50;50.40
680;DHT22;322;48.846;9.230;2023-05-07T10:40:40;26.40;49.00
680;DHT22;322;48.846;9.230;2023-05-07T10:43:07;26.60;50.60
680;DHT22;322;48.846;9.230;2023-05-07T10:45:34;26.90;49.60
680;DHT22;322;48.846;9.230;2023-05-07T10:48:11;26.90;52.10
680;DHT22;322;48.846;9.230;2023-05-07T10:50:40;26.70;51.90
680;DHT22;322;48.846;9.230;2023-05-07T10:53:24;26.50;50.60
680;DHT22;322;48.846;9.230;2023-05-07T10:56:25;26.20;54.90
680;DHT22;322;48.846;9.230;2023-05-07T10:58:54;26.00;50.10
680;DHT22;322;48.846;9.230;2023-05-07T11:01:52;26.00;54.20
680;DHT22;322;48.846;9.230;2023-05-07T11:04:20;26.20;54.20
680;DHT22;322;48.846;9.230;2023-05-07T11:07:27;26.40;55.40
680;DHT22;322;48.846;9.230;2023-05-07T11:10:04;26.80;50.40
680;DHT22;322;48.846;9.230;2023-05-07T11:12:52;26.30;50.70
680;DHT22;322;48.846;9.230;2023-05-07T11:15:43;26.10;50.20
680;DHT22;322;48.846;9.230;2023-05-07T11:18:11;25.90;50.40
680;DHT22;322;48.846;9.230;2023-05-07T11:20:58;26.20;50.70
680;DHT22;322;48.846;9.230;2023-05-07T11:23:58;26.00;49.80
680;DHT22;322;48.846;9.230;2023-05-07T11:26:26;25.40;49.50
680;DHT22;322;48.846;9.230;2023-05-07T11:28:53;24.80;53.10
680;DHT22;322;48.846;9.230;2023-05-07T11:31:21;24.60;53.70
680;DHT22;322;48.846;9.230;2023-05-07T11:33:49;24.40;52.50
680;DHT22;322;48.846;9.230;2023-05-07T11:36:16;24.20;54.00
680;DHT22;322;48.846;9.230;2023-05-07T11:38:43;24.20;51.60
680;DHT22;322;48.846;9.230;2023-05-07T11:41:11;24.40;52.70
680;DHT22;322;48.846;9.230;2023-05-07T11:43:40;24.50;51.70
680;DHT22;322;48.846;9.230;2023-05-07T11:46:20;24.60;52.70
680;DHT22;322;48.846;9.230;2023-05-07T11:48:47;24.50;52.20
680;DHT22;322;48.846;9.230;2023-05-07T11:51:18;24.30;53.60
680;DHT22;322;48.846;9.230;2023-05-07T11:53:45;24.10;53.70
680;DHT22;322;48.846;9.230;2023-05-07T11:56:16;24.10;52.10
680;DHT22;322;48.846;9.230;2023-05-07T11:58:44;24.00;52.40
680;DHT22;322;48.846;9.230;2023-05-07T12:01:12;23.90;52.80
680;DHT22;322;48.846;9.230;2023-05-07T12:03:40;23.80;53.40
680;DHT22;322;48.846;9.230;2023-05-07T12:06:09;23.80;52.70
680;DHT22;322;48.846;9.230;2023-05-07T12:08:38;23.70;53.30
680;DHT22;322;48.846;9.230;2023-05-07T12:11:08;23.60;53.30
680;DHT22;322;48.846;9.230;2023-05-07T12:13:38;23.60;57.00
680;DHT22;322;48.846;9.230;2023-05-07T12:16:06;23.50;57.00
680;DHT22;322;48.846;9.230;2023-05-07T12:18:35;23.50;55.80
680;DHT22;322;48.846;9.230;2023-05-07T12:21:03;23.40;58.10
680;DHT22;322;48.846;9.230;2023-05-07T12:23:31;23.40;55.70
680;DHT22;322;48.846;9.230;2023-05-07T12:25:59;23.30;59.30
680;DHT22;322;48.846;9.230;2023-05-07T12:28:26;23.10;57.90
680;DHT22;322;48.846;9.230;2023-05-07T12:30:54;23.00;58.70
680;DHT22;322;48.846;9.230;2023-05-07T12:33:24;22.90;59.40
680;DHT22;322;48.846;9.230;2023-05-07T12:35:53;22.90;57.60
680;DHT22;322;48.846;9.230;2023-05-07T12:38:20;22.80;58.20
680;DHT22;322;48.846;9.230;2023-05-07T12:40:48;22.70;59.40
680;DHT22;322;48.846;9.230;2023-05-07T12:43:17;22.70;62.00
680;DHT22;322;48.846;9.230;2023-05-07T12:45:45;22.40;61.90
680;DHT22;322;48.846;9.230;2023-05-07T12:48:14;22.10;64.50
680;DHT22;322;48.846;9.230;2023-05-07T12:50:41;21.70;66.50
680;DHT22;322;48.846;9.230;2023-05-07T12:53:09;21.30;71.30
680;DHT22;322;48.846;9.230;2023-05-07T12:55:42;20.90;71.10
680;DHT22;322;48.846;9.230;2023-05-07T12:58:14;20.40;73.00
680;DHT22;322;48.846;9.230;2023-05-07T13:00:42;19.90;73.20
680;DHT22;322;48.846;9.230;2023-05-07T13:03:09;19.50;79.10
680;DHT22;322;48.846;9.230;2023-05-07T13:05:37;19.20;82.20
680;DHT22;322;48.846;9.230;2023-05-07T13:08:04;19.00;86.40
680;DHT22;322;48.846;9.230;2023-05-07T13:10:31;18.80;91.00
680;DHT22;322;48.846;9.230;2023-05-07T13:12:59;18.40;94.20
680;DHT22;322;48.846;9.230;2023-05-07T13:15:26;18.10;95.50
680;DHT22;322;48.846;9.230;2023-05-07T13:17:53;17.80;96.10
680;DHT22;322;48.846;9.230;2023-05-07T13:20:20;17.60;97.70
680;DHT22;322;48.846;9.230;2023-05-07T13:22:48;17.40;95.60
680;DHT22;322;48.846;9.230;2023-05-07T13:25:15;17.10;94.90
680;DHT22;322;48.846;9.230;2023-05-07T13:27:42;16.90;96.90
680;DHT22;322;48.846;9.230;2023-05-07T13:30:09;16.60;97.90
680;DHT22;322;48.846;9.230;2023-05-07T13:32:36;16.40;96.80
680;DHT22;322;48.846;9.230;2023-05-07T13:35:03;16.10;98.10
680;DHT22;322;48.846;9.230;2023-05-07T13:37:30;15.90;99.20
680;DHT22;322;48.846;9.230;2023-05-07T13:39:59;15.70;99.90
680;DHT22;322;48.846;9.230;2023-05-07T13:42:25;15.60;99.90
680;DHT22;322;48.846;9.230;2023-05-07T13:44:52;15.40;99.90
680;DHT22;322;48.846;9.230;2023-05-07T13:47:19;15.20;99.90
680;DHT22;322;48.846;9.230;2023-05-07T13:49:46;15.00;99.90
680;DHT22;322;48.846;9.230;2023-05-07T13:52:15;14.90;99.90
680;DHT22;322;48.846;9.230;2023-05-07T13:54:41;14.80;99.90
680;DHT22;322;48.846;9.230;2023-05-07T13:57:10;14.80;99.90
680;DHT22;322;48.846;9.230;2023-05-07T13:59:36;14.80;99.90
680;DHT22;322;48.846;9.230;2023-05-07T14:02:03;14.80;99.90
680;DHT22;322;48.846;9.230;2023-05-07T14:04:30;14.70;99.90
680;DHT22;322;48.846;9.230;2023-05-07T14:06:57;14.60;99.90
680;DHT22;322;48.846;9.230;2023-05-07T14:09:24;14.60;99.90
680;DHT22;322;48.846;9.230;2023-05-07T14:11:51;14.60;99.90
680;DHT22;322;48.846;9.230;2023-05-07T14:14:19;14.50;99.90
680;DHT22;322;48.846;9.230;2023-05-07T14:16:46;14.50;99.90
680;DHT22;322;48.846;9.230;2023-05-07T14:19:13;14.60;99.90
680;DHT22;322;48.846;9.230;2023-05-07T14:21:40;14.80;99.90
680;DHT22;322;48.846;9.230;2023-05-07T14:24:07;14.90;99.90
680;DHT22;322;48.846;9.230;2023-05-07T14:26:35;14.90;99.90
680;DHT22;322;48.846;9.230;2023-05-07T14:29:02;14.90;99.90
680;DHT22;322;48.846;9.230;2023-05-07T14:31:30;14.90;99.90
680;DHT22;322;48.846;9.230;2023-05-07T14:33:57;15.00;99.90
680;DHT22;322;48.846;9.230;2023-05-07T14:36:24;15.10;99.90
680;DHT22;322;48.846;9.230;2023-05-07T14:38:52;15.10;99.90
680;DHT22;322;48.846;9.230;2023-05-07T14:41:19;15.10;99.90
680;DHT22;322;48.846;9.230;2023-05-07T14:43:46;15.20;99.90
680;DHT22;322;48.846;9.230;2023-05-07T14:46:15;15.30;99.90
680;DHT22;322;48.846;9.230;2023-05-07T14:48:44;15.30;99.90
680;DHT22;322;48.846;9.230;2023-05-07T14:51:12;15.40;99.90
680;DHT22;322;48.846;9.230;2023-05-07T14:53:40;15.40;99.90
680;DHT22;322;48.846;9.230;2023-05-07T14:56:07;15.30;99.90
680;DHT22;322;48.846;9.230;2023-05-07T14:58:34;15.40;99.90
680;DHT22;322;48.846;9.230;2023-05-07T15:01:01;15.40;99.90
680;DHT22;322;48.846;9.230;2023-05-07T15:03:28;15.40;99.90
680;DHT22;322;48.846;9.230;2023-05-07T15:05:56;15.40;99.90
680;DHT22;322;48.846;9.230;2023-05-07T15:08:23;15.50;99.90
680;DHT22;322;48.846;9.230;2023-05-07T15:10:50;15.50;99.90
680;DHT22;322;48.846;9.230;2023-05-07T15:13:17;15.60;99.90
680;DHT22;322;48.846;9.230;2023-05-07T15:15:44;15.60;99.90
680;DHT22;322;48.846;9.230;2023-05-07T15:18:11;15.60;99.90
680;DHT22;322;48.846;9.230;2023-05-07T15:20:38;15.60;99.90
680;DHT22;322;48.846;9.230;2023-05-07T15:23:08;15.70;99.90
680;DHT22;322;48.846;9.230;2023-05-07T15:25:37;15.90;99.90
680;DHT22;322;48.846;9.230;2023-05-07T15:28:04;16.00;99.90
680;DHT22;322;48.846;9.230;2023-05-07T15:30:31;16.00;99.90
680;DHT22;322;48.846;9.230;2023-05-07T15:32:58;16.00;99.90
680;DHT22;322;48.846;9.230;2023-05-07T15:35:26;16.00;99.90
680;DHT22;322;48.846;9.230;2023-05-07T15:37:53;16.00;99.90
680;DHT22;322;48.846;9.230;2023-05-07T15:40:21;16.10;99.90
680;DHT22;322;48.846;9.230;2023-05-07T15:42:48;16.10;99.90
680;DHT22;322;48.846;9.230;2023-05-07T15:45:15;16.40;99.90
680;DHT22;322;48.846;9.230;2023-05-07T15:47:41;16.50;99.90
680;DHT22;322;48.846;9.230;2023-05-07T15:50:09;16.60;99.90
680;DHT22;322;48.846;9.230;2023-05-07T15:52:36;16.70;99.90
680;DHT22;322;48.846;9.230;2023-05-07T15:55:04;16.70;99.90
680;DHT22;322;48.846;9.230;2023-05-07T15:57:33;16.60;99.90
680;DHT22;322;48.846;9.230;2023-05-07T16:00:00;16.50;99.90
680;DHT22;322;48.846;9.230;2023-05-07T16:02:28;16.50;99.90
680;DHT22;322;48.846;9.230;2023-05-07T16:04:55;16.40;99.90
680;DHT22;322;48.846;9.230;2023-05-07T16:07:22;16.40;99.90
680;DHT22;322;48.846;9.230;2023-05-07T16:09:49;16.40;99.90
680;DHT22;322;48.846;9.230;2023-05-07T16:12:16;16.40;99.90
680;DHT22;322;48.846;9.230;2023-05-07T16:14:44;16.30;99.90
680;DHT22;322;48.846;9.230;2023-05-07T16:17:11;16.20;99.90
680;DHT22;322;48.846;9.230;2023-05-07T16:19:38;16.20;99.90
680;DHT22;322;48.846;9.230;2023-05-07T16:22:05;16.10;99.90
680;DHT22;322;48.846;9.230;2023-05-07T16:24:32;16.10;99.90
680;DHT22;322;48.846;9.230;2023-05-07T16:26:58;16.20;99.90
680;DHT22;322;48.846;9.230;2023-05-07T16:29:25;16.20;99.90
680;DHT22;322;48.846;9.230;2023-05-07T16:31:54;16.40;99.90
680;DHT22;322;48.846;9.230;2023-05-07T16:34:21;16.50;99.90
680;DHT22;322;48.846;9.230;2023-05-07T16:36:48;16.50;99.90
680;DHT22;322;48.846;9.230;2023-05-07T16:39:14;16.60;99.90